Voge Trust — A8RR2 — position and weather

sailwx.info

Track history (hours):
 
Tides and Currents Weather Stations Pressure Air Temp Water Temp Dewpoint Dewpoint Depression Visibility Wind Speed Wind Dir Waves Ship Positions

Voge Trust

Last reported at 2017-Nov-23 01:41 UTC. Time now 2017-Nov-24 05:33 UTC.
Position N 40°53' E 001°44'.

Length 183 m; draft 8 m.

Type: Ship (hazmat cat A). MMSI: 636091701.

Date/timePositionNaut miles runAvg speedWind from/ knotsBaromVisibWave heightAir tempDewpointWater temp
2017-Nov-23 01:41N 40°53' E 001°44'314.2
2017-Nov-23 01:29N 40°55' E 001°46'714.3
2017-Nov-23 01:00N 41°00' E 001°52'714.2
2017-Nov-23 00:30N 41°06' E 001°58'714.1
2017-Nov-23 00:00N 41°11' E 002°05'  
2017-Nov-19 05:00N 36°31' E 014°20'612.8
2017-Nov-19 04:30N 36°29' E 014°28'612.7
2017-Nov-19 04:00N 36°27' E 014°35'  
2017-Nov-16 16:12N 33°42' E 029°58'16313.9
2017-Nov-16 04:28N 33°11' E 033°10'  
Track history (hours):
 
Tides and Currents Weather Stations Pressure Air Temp Water Temp Dewpoint Dewpoint Depression Visibility Wind Speed Wind Dir Waves Ship Positions

Voge Trust

Last reported at 2017-Nov-23 01:41 UTC. Time now 2017-Nov-24 05:33 UTC.
Position N 40°53' E 001°44'.

Length 183 m; draft 8 m.

Type: Ship (hazmat cat A). MMSI: 636091701.

Date/timePositionNaut miles runAvg speedWind from/ knotsBaromVisibWave heightAir tempDewpointWater temp
2017-Nov-23 01:41N 40°53' E 001°44'314.2
2017-Nov-23 01:29N 40°55' E 001°46'714.3
2017-Nov-23 01:00N 41°00' E 001°52'714.2
2017-Nov-23 00:30N 41°06' E 001°58'714.1
2017-Nov-23 00:00N 41°11' E 002°05'  
2017-Nov-19 05:00N 36°31' E 014°20'612.8
2017-Nov-19 04:30N 36°29' E 014°28'612.7
2017-Nov-19 04:00N 36°27' E 014°35'  
2017-Nov-16 16:12N 33°42' E 029°58'16313.9
2017-Nov-16 04:28N 33°11' E 033°10'  

Dump ship's entire track history